Berit — ZDHX2 — position and weather

sailwx.info

Track history (hours):
 
Tides and Currents Weather Stations Pressure Air Temp Water Temp Dewpoint Dewpoint Depression Visibility Wind Speed Wind Dir Waves Ship Positions

Berit

Last reported at 2017-Apr-24 18:54 UTC. Time now 2017-Apr-25 14:38 UTC.
Position N 54°02' E 007°58'.

Length 83 m; draft 4.4 m.

Type: Cargo ship. MMSI: 236386000.

Date/timePositionNaut miles runAvg speedWind from/ knotsBaromVisibWave heightAir tempDewpointWater temp
2017-Apr-24 18:54N 54°02' E 007°58'3 8.0
2017-Apr-24 18:30N 54°01' E 008°03'4 8.4
2017-Apr-24 18:00N 54°01' E 008°10'4 9.0
2017-Apr-24 17:31N 54°00' E 008°18'510.7
2017-Apr-24 17:00N 53°59' E 008°26'612.1
2017-Apr-24 16:30N 53°58' E 008°36'713.2
2017-Apr-24 16:00N 53°53' E 008°43'612.6
2017-Apr-24 15:31N 53°51' E 008°53'612.7
2017-Apr-24 15:00N 53°52' E 009°04'3 6.4
2017-Apr-24 14:30N 53°54' E 009°09'7 7.0
2017-Apr-24 13:30N 53°59' E 009°17'5 8.5
2017-Apr-24 12:57N 54°03' E 009°19'51 5.2
2017-Apr-24 03:04N 54°33' E 010°29'1 5.1
2017-Apr-24 02:54N 54°33' E 010°31'3 6.3
2017-Apr-24 02:30N 54°34' E 010°35'3 6.2
2017-Apr-24 02:00N 54°35' E 010°40'3 6.3
2017-Apr-24 01:31N 54°35' E 010°45'4 8.1
2017-Apr-24 01:01N 54°35' E 010°52'5 9.1
2017-Apr-24 00:31N 54°36' E 011°00'5 9.1
2017-Apr-24 00:01N 54°36' E 011°08'5 9.1
2017-Apr-23 23:30N 54°35' E 011°15'4 9.0
2017-Apr-23 23:01N 54°33' E 011°22'5 9.1
2017-Apr-23 22:31N 54°31' E 011°30'9 8.6
2017-Apr-23 21:30N 54°27' E 011°43'4 8.6
2017-Apr-23 21:00N 54°27' E 011°51'8 8.6
2017-Apr-23 20:02N 54°27' E 012°05'0 8.7
2017-Apr-23 20:00N 54°27' E 012°05'4 8.3
2017-Apr-23 19:31N 54°29' E 012°11'510.2
2017-Apr-23 19:01N 54°34' E 012°13'5 9.6
2017-Apr-23 18:30N 54°38' E 012°18'5 9.8
2017-Apr-23 18:01N 54°40' E 012°25'197 9.1
2017-Apr-22 20:23N 54°57' E 018°06'4 8.4
2017-Apr-22 19:55N 54°58' E 018°13'5 8.1
2017-Apr-22 19:21N 54°58' E 018°21'3 7.9
2017-Apr-22 19:00N 54°57' E 018°26'4 7.9
2017-Apr-22 18:31N 54°57' E 018°32'4 7.9
2017-Apr-22 18:01N 54°55' E 018°39'4 8.0
2017-Apr-22 17:31N 54°53' E 018°44'4 8.3
2017-Apr-22 17:01N 54°50' E 018°50'4 8.1
2017-Apr-22 16:31N 54°48' E 018°55'4 7.9
2017-Apr-22 16:01N 54°45' E 019°01'4 8.5
2017-Apr-22 15:31N 54°41' E 018°58'4 9.0
2017-Apr-22 15:01N 54°37' E 018°55'5 9.3
2017-Apr-22 14:31N 54°33' E 018°51'10 9.8
2017-Apr-22 13:31N 54°26' E 018°39'3 5.7
2017-Apr-22 13:01N 54°23' E 018°40'1 2.5
2017-Apr-22 12:28N 54°22' E 018°40'0 0.0
2017-Apr-22 11:58N 54°22' E 018°40'0 0.0
2017-Apr-22 11:28N 54°22' E 018°40'0 0.0
2017-Apr-22 10:58N 54°22' E 018°40'0 0.0
2017-Apr-22 10:28N 54°22' E 018°40'0 0.0
2017-Apr-22 09:58N 54°22' E 018°40'0 0.0
2017-Apr-22 09:28N 54°22' E 018°40'0 0.0
2017-Apr-22 08:58N 54°22' E 018°40'0 0.0
2017-Apr-22 08:28N 54°22' E 018°40'0 0.0
2017-Apr-22 07:58N 54°22' E 018°40'0 0.0
2017-Apr-22 07:28N 54°22' E 018°40'0 0.0
2017-Apr-22 06:58N 54°22' E 018°40'0 0.0
2017-Apr-22 06:28N 54°22' E 018°40'0 0.0
2017-Apr-22 05:58N 54°22' E 018°40'0 0.0
2017-Apr-22 05:28N 54°22' E 018°40'0 0.0
2017-Apr-22 04:58N 54°22' E 018°40'0 0.0
2017-Apr-22 04:28N 54°22' E 018°40'0 0.0
2017-Apr-22 03:58N 54°22' E 018°40'0 0.0
2017-Apr-22 03:28N 54°22' E 018°40'0 0.0
2017-Apr-22 02:58N 54°22' E 018°40'0 0.0
2017-Apr-22 02:28N 54°22' E 018°40'0 0.0
2017-Apr-22 01:58N 54°22' E 018°40'0 0.0
2017-Apr-22 01:25N 54°22' E 018°40'0 0.0
2017-Apr-22 00:58N 54°22' E 018°40'0 0.0
2017-Apr-22 00:28N 54°22' E 018°40'0 0.0
2017-Apr-21 23:58N 54°22' E 018°40'0 0.0
2017-Apr-21 23:28N 54°22' E 018°40'0 0.0
2017-Apr-21 22:58N 54°22' E 018°40'0 0.0
2017-Apr-21 22:22N 54°22' E 018°40'0 0.0
2017-Apr-21 21:58N 54°22' E 018°40'0 0.0
2017-Apr-21 21:28N 54°22' E 018°40'0 0.0
2017-Apr-21 20:58N 54°22' E 018°40'0 0.0
2017-Apr-21 20:28N 54°22' E 018°40'0 0.0
2017-Apr-21 19:58N 54°22' E 018°40'0 0.0
2017-Apr-21 19:29N 54°22' E 018°40'0 0.0
2017-Apr-21 18:58N 54°22' E 018°40'0 0.0
2017-Apr-21 18:28N 54°22' E 018°40'0 0.0
2017-Apr-21 17:58N 54°22' E 018°40'0 0.0
2017-Apr-21 17:28N 54°22' E 018°40'0 0.0
2017-Apr-21 16:58N 54°22' E 018°40'0 0.0
2017-Apr-21 16:28N 54°22' E 018°40'0 0.0
2017-Apr-21 15:58N 54°22' E 018°40'0 0.0
2017-Apr-21 15:25N 54°22' E 018°40'0 0.0
2017-Apr-21 14:58N 54°22' E 018°40'0 0.0
2017-Apr-21 14:28N 54°22' E 018°40'0 0.0
2017-Apr-21 13:28N 54°22' E 018°40'0 0.0
2017-Apr-21 12:58N 54°22' E 018°40'0 0.0
2017-Apr-21 12:28N 54°22' E 018°40'0 0.0
2017-Apr-21 11:58N 54°22' E 018°40'0 0.0
2017-Apr-21 11:28N 54°22' E 018°40'0 0.0
2017-Apr-21 10:58N 54°22' E 018°40'0 0.0
2017-Apr-21 10:28N 54°22' E 018°40'0 0.0
2017-Apr-21 09:58N 54°22' E 018°40'0 0.0
2017-Apr-21 09:28N 54°22' E 018°40'0 0.0
2017-Apr-21 08:58N 54°22' E 018°40'0 0.0
2017-Apr-21 08:28N 54°22' E 018°40'0 0.0
2017-Apr-21 07:55N 54°22' E 018°40'0 0.0
2017-Apr-21 07:28N 54°22' E 018°40'0 0.0
2017-Apr-21 06:58N 54°22' E 018°40'0 0.0
2017-Apr-21 06:28N 54°22' E 018°40'0 0.0
2017-Apr-21 05:58N 54°22' E 018°40'0 0.0
2017-Apr-21 05:28N 54°22' E 018°40'0 0.0
2017-Apr-21 04:58N 54°22' E 018°40'0 0.0
2017-Apr-21 04:28N 54°22' E 018°40'1 2.4
2017-Apr-21 04:00N 54°23' E 018°40'2 5.0
2017-Apr-21 03:30N 54°25' E 018°39'1 2.3
2017-Apr-21 03:00N 54°27' E 018°39'0 0.0
2017-Apr-21 02:30N 54°27' E 018°39'0 0.0
2017-Apr-21 02:00N 54°27' E 018°39'0 0.0
2017-Apr-21 01:30N 54°27' E 018°39'0 0.0
2017-Apr-21 01:00N 54°27' E 018°39'0 0.0
2017-Apr-21 00:30N 54°27' E 018°39'0 0.0
2017-Apr-21 00:00N 54°27' E 018°39'0 0.0
2017-Apr-20 23:30N 54°27' E 018°39'0 0.0
2017-Apr-20 23:00N 54°27' E 018°39'0 0.0
2017-Apr-20 22:30N 54°27' E 018°39'0 0.0
2017-Apr-20 22:00N 54°27' E 018°39'0 0.0
2017-Apr-20 21:30N 54°27' E 018°39'0 0.0
2017-Apr-20 21:00N 54°27' E 018°39'0 0.0
2017-Apr-20 20:30N 54°27' E 018°39'0 0.0
2017-Apr-20 20:00N 54°27' E 018°39'0 0.0
2017-Apr-20 19:30N 54°27' E 018°39'0 0.0
2017-Apr-20 19:00N 54°27' E 018°39'0 0.1
2017-Apr-20 18:30N 54°27' E 018°39'0 0.0
2017-Apr-20 18:00N 54°27' E 018°39'0 0.0
2017-Apr-20 17:30N 54°27' E 018°39'0 0.0
2017-Apr-20 17:00N 54°27' E 018°39'0 0.0
2017-Apr-20 16:30N 54°27' E 018°39'0 0.0
2017-Apr-20 16:00N 54°27' E 018°39'0 0.0
2017-Apr-20 15:30N 54°27' E 018°39'0 0.0
2017-Apr-20 15:00N 54°27' E 018°39'0 0.0
2017-Apr-20 14:30N 54°27' E 018°39'0 0.0
2017-Apr-20 13:30N 54°27' E 018°39'0 0.0
2017-Apr-20 13:00N 54°27' E 018°39'0 0.0
2017-Apr-20 12:30N 54°27' E 018°39'0 0.0
2017-Apr-20 12:00N 54°27' E 018°39'0 0.0
2017-Apr-20 11:30N 54°27' E 018°39'0 0.0
2017-Apr-20 11:00N 54°27' E 018°39'0 0.0
2017-Apr-20 10:30N 54°27' E 018°39'0 0.0
2017-Apr-20 10:00N 54°27' E 018°39'0 0.0
2017-Apr-20 09:30N 54°27' E 018°39'0 0.0
2017-Apr-20 09:00N 54°27' E 018°39'0 0.0
2017-Apr-20 08:30N 54°27' E 018°39'0 0.0
2017-Apr-20 08:00N 54°27' E 018°39'0 0.0
2017-Apr-20 07:30N 54°27' E 018°39'0 0.0
2017-Apr-20 07:00N 54°27' E 018°39'0 0.0
2017-Apr-20 06:30N 54°27' E 018°39'0 0.0
2017-Apr-20 06:00N 54°27' E 018°39'0 0.0
2017-Apr-20 05:30N 54°27' E 018°39'0 0.0
2017-Apr-20 05:00N 54°27' E 018°39'0 0.0
2017-Apr-20 04:30N 54°27' E 018°39'0 0.0
2017-Apr-20 04:00N 54°27' E 018°39'0 0.0
2017-Apr-20 03:30N 54°27' E 018°39'0 0.0
2017-Apr-20 03:00N 54°27' E 018°39'0 0.0
2017-Apr-20 02:30N 54°27' E 018°39'0 0.0
2017-Apr-20 02:00N 54°27' E 018°39'0 0.0
2017-Apr-20 01:30N 54°27' E 018°39'0 0.0
2017-Apr-20 01:00N 54°27' E 018°39'0 0.0
2017-Apr-20 00:30N 54°27' E 018°39'0 0.0
2017-Apr-20 00:00N 54°27' E 018°39'0 0.1
2017-Apr-19 23:30N 54°27' E 018°39'0 0.0
2017-Apr-19 23:00N 54°27' E 018°39'0 0.0
2017-Apr-19 22:30N 54°27' E 018°39'0 0.0
2017-Apr-19 22:00N 54°27' E 018°39'0 0.0
2017-Apr-19 21:30N 54°27' E 018°39'0 0.0
2017-Apr-19 21:00N 54°27' E 018°39'0 0.0
2017-Apr-19 20:30N 54°27' E 018°39'0 0.0
2017-Apr-19 20:00N 54°27' E 018°39'0 0.0
2017-Apr-19 19:30N 54°27' E 018°39'0 0.0
2017-Apr-19 19:00N 54°27' E 018°39'0 0.0
2017-Apr-19 18:30N 54°27' E 018°39'0 0.0
2017-Apr-19 18:00N 54°27' E 018°39'0 0.0
2017-Apr-19 17:30N 54°27' E 018°39'0 0.0
2017-Apr-19 17:00N 54°27' E 018°39'0 0.1
2017-Apr-19 16:30N 54°27' E 018°39'0 0.0
2017-Apr-19 16:00N 54°27' E 018°39'0 0.1
2017-Apr-19 15:30N 54°27' E 018°39'0 0.0
2017-Apr-19 15:00N 54°27' E 018°39'0 0.0
2017-Apr-19 14:30N 54°27' E 018°39'0 0.0
2017-Apr-19 13:30N 54°27' E 018°39'0 0.0
2017-Apr-19 13:00N 54°27' E 018°39'0 0.0
2017-Apr-19 12:30N 54°27' E 018°39'0 0.0
2017-Apr-19 12:00N 54°27' E 018°39'0 0.0
2017-Apr-19 11:30N 54°27' E 018°39'0 0.0
2017-Apr-19 11:00N 54°27' E 018°39'0 0.0
2017-Apr-19 10:30N 54°27' E 018°39'0 0.1
2017-Apr-19 10:00N 54°27' E 018°39'0 0.1
2017-Apr-19 09:30N 54°27' E 018°39'0 0.1
2017-Apr-19 09:00N 54°27' E 018°39'0 0.0
2017-Apr-19 08:30N 54°27' E 018°39'0 0.0
2017-Apr-19 08:00N 54°27' E 018°39'0 0.0
2017-Apr-19 07:30N 54°27' E 018°39'0 0.0
2017-Apr-19 07:00N 54°27' E 018°39'0 0.0
2017-Apr-19 06:30N 54°27' E 018°39'0 0.0
2017-Apr-19 06:00N 54°27' E 018°39'0 0.1
2017-Apr-19 05:30N 54°27' E 018°39'0 0.0
2017-Apr-19 05:00N 54°27' E 018°39'0 0.0
2017-Apr-19 04:30N 54°27' E 018°39'0 0.0
2017-Apr-19 04:00N 54°27' E 018°39'0 0.1
2017-Apr-19 03:30N 54°27' E 018°39'0 0.0
2017-Apr-19 03:00N 54°27' E 018°39'0 0.0
2017-Apr-19 02:30N 54°27' E 018°39'0 0.0
2017-Apr-19 02:00N 54°27' E 018°39'0 0.0
2017-Apr-19 01:30N 54°27' E 018°39'0 0.1
2017-Apr-19 01:00N 54°27' E 018°39'0 0.0
2017-Apr-19 00:30N 54°27' E 018°39'0 0.0
2017-Apr-19 00:00N 54°27' E 018°39'0 0.0
2017-Apr-18 23:30N 54°27' E 018°39'0 0.0
2017-Apr-18 23:00N 54°27' E 018°39'0 0.0
2017-Apr-18 22:30N 54°27' E 018°39'0 0.0
2017-Apr-18 22:00N 54°27' E 018°39'0 0.0
2017-Apr-18 21:30N 54°27' E 018°39'0 0.0
2017-Apr-18 21:00N 54°27' E 018°39'0 0.0
2017-Apr-18 20:30N 54°27' E 018°39'0 0.1
2017-Apr-18 20:00N 54°27' E 018°39'0 0.0
2017-Apr-18 19:30N 54°27' E 018°39'1 1.0
2017-Apr-18 19:01N 54°27' E 018°39'4 8.7
2017-Apr-18 18:31N 54°30' E 018°45'510.6
2017-Apr-18 18:01N 54°34' E 018°51'510.3
2017-Apr-18 17:31N 54°38' E 018°55'2 3.8
2017-Apr-18 17:01N 54°40' E 018°57'510.2
2017-Apr-18 16:31N 54°35' E 018°54'5 9.7
2017-Apr-18 16:01N 54°32' E 018°48'5 9.8
2017-Apr-18 15:31N 54°32' E 018°39'4 8.1
2017-Apr-18 15:01N 54°32' E 018°32'0 0.1
2017-Apr-18 14:30N 54°32' E 018°32'0 0.0
2017-Apr-18 13:30N 54°32' E 018°32'0 0.0
2017-Apr-18 13:00N 54°32' E 018°32'0 0.0
2017-Apr-18 12:30N 54°32' E 018°32'0 0.0
2017-Apr-18 12:00N 54°32' E 018°32'0 0.0
2017-Apr-18 11:30N 54°32' E 018°32'0 0.0
2017-Apr-18 11:00N 54°32' E 018°32'0 0.0
2017-Apr-18 10:30N 54°32' E 018°32'0 0.0
2017-Apr-18 10:00N 54°32' E 018°32'0 0.0
2017-Apr-18 09:30N 54°32' E 018°32'0 0.0
2017-Apr-18 09:00N 54°32' E 018°32'0 0.0
2017-Apr-18 08:30N 54°32' E 018°32'0 0.0
2017-Apr-18 08:00N 54°32' E 018°32'0 0.0
2017-Apr-18 07:30N 54°32' E 018°32'0 0.0
2017-Apr-18 07:00N 54°32' E 018°32'0 0.0
2017-Apr-18 06:30N 54°32' E 018°32'0 0.0
2017-Apr-18 06:00N 54°32' E 018°32'0 0.0
2017-Apr-18 05:30N 54°32' E 018°32'0 0.0
2017-Apr-18 05:00N 54°32' E 018°32'0 0.0
2017-Apr-18 04:30N 54°32' E 018°32'0 0.0
2017-Apr-18 04:00N 54°32' E 018°32'0 0.0
2017-Apr-18 03:30N 54°32' E 018°32'0 0.0
2017-Apr-18 03:00N 54°32' E 018°32'0 0.0
2017-Apr-18 02:31N 54°32' E 018°32'0 0.0
2017-Apr-18 02:00N 54°32' E 018°32'0 0.0
2017-Apr-18 01:30N 54°32' E 018°32'0 0.0
2017-Apr-18 01:00N 54°32' E 018°32'0 0.0
2017-Apr-18 00:30N 54°32' E 018°32'0 0.0
2017-Apr-18 00:00N 54°32' E 018°32'0 0.0
2017-Apr-17 23:30N 54°32' E 018°32'0 0.0
2017-Apr-17 23:00N 54°32' E 018°32'0 0.0
2017-Apr-17 22:30N 54°32' E 018°32'0 0.0
2017-Apr-17 22:00N 54°32' E 018°32'0 0.0
2017-Apr-17 21:30N 54°32' E 018°32'0 0.0
2017-Apr-17 21:00N 54°32' E 018°32'0 0.0
2017-Apr-17 20:30N 54°32' E 018°32'0 0.0
2017-Apr-17 19:57N 54°32' E 018°32'0 0.0
2017-Apr-17 19:30N 54°32' E 018°32'0 0.0
2017-Apr-17 19:00N 54°32' E 018°32'0 0.0
2017-Apr-17 18:30N 54°32' E 018°32'0 0.0
2017-Apr-17 18:00N 54°32' E 018°32'0 0.0
2017-Apr-17 17:30N 54°32' E 018°32'0 0.0
2017-Apr-17 17:00N 54°32' E 018°32'0 0.0
2017-Apr-17 16:30N 54°32' E 018°32'0 0.0
2017-Apr-17 16:00N 54°32' E 018°32'0 0.0
2017-Apr-17 15:30N 54°32' E 018°32'0 0.0
2017-Apr-17 15:00N 54°32' E 018°32'0 0.0
2017-Apr-17 14:30N 54°32' E 018°32'0 0.0
2017-Apr-17 13:30N 54°32' E 018°32'0 0.0
2017-Apr-17 13:00N 54°32' E 018°32'0 0.0
2017-Apr-17 12:30N 54°32' E 018°32'0 0.0
2017-Apr-17 12:00N 54°32' E 018°32'0 0.0
2017-Apr-17 11:30N 54°32' E 018°32'0 0.0
2017-Apr-17 11:00N 54°32' E 018°32'0 0.0
2017-Apr-17 10:30N 54°32' E 018°32'0 0.0
2017-Apr-17 10:00N 54°32' E 018°32'0 0.0
2017-Apr-17 09:30N 54°32' E 018°32'0 0.0
2017-Apr-17 09:00N 54°32' E 018°32'0 0.0
2017-Apr-17 08:30N 54°32' E 018°32'0 0.0
2017-Apr-17 08:00N 54°32' E 018°32'0 0.0
2017-Apr-17 07:30N 54°32' E 018°32'0 0.0
2017-Apr-17 07:00N 54°32' E 018°32'0 0.0
2017-Apr-17 06:30N 54°32' E 018°32'0 0.0
2017-Apr-17 06:00N 54°32' E 018°32'0 0.0
2017-Apr-17 05:30N 54°32' E 018°32'0 0.0
2017-Apr-17 05:00N 54°32' E 018°32'0 0.0
2017-Apr-17 04:30N 54°32' E 018°32'0 0.0
2017-Apr-17 03:57N 54°32' E 018°32'0 0.0
2017-Apr-17 03:30N 54°32' E 018°32'0 0.0
2017-Apr-17 03:00N 54°32' E 018°32'0 0.0
2017-Apr-17 02:30N 54°32' E 018°32'0 0.0
2017-Apr-17 02:00N 54°32' E 018°32'0 0.0
2017-Apr-17 01:30N 54°32' E 018°32'0 0.0
2017-Apr-17 01:00N 54°32' E 018°32'0 0.0
2017-Apr-17 00:30N 54°32' E 018°32'0 0.0
2017-Apr-17 00:00N 54°32' E 018°32'0 0.0
2017-Apr-16 23:30N 54°32' E 018°32'0 0.0
2017-Apr-16 23:00N 54°32' E 018°32'0 0.0
2017-Apr-16 22:30N 54°32' E 018°32'0 0.0
2017-Apr-16 22:00N 54°32' E 018°32'0 0.0
2017-Apr-16 21:30N 54°32' E 018°32'0 0.0
2017-Apr-16 21:00N 54°32' E 018°32'0 0.0
2017-Apr-16 20:30N 54°32' E 018°32'0 0.0
2017-Apr-16 20:00N 54°32' E 018°32'0 0.0
2017-Apr-16 19:30N 54°32' E 018°32'0 0.0
2017-Apr-16 19:00N 54°32' E 018°32'0 0.0
2017-Apr-16 18:30N 54°32' E 018°32'0 0.0
2017-Apr-16 18:00N 54°32' E 018°32'0 0.0
2017-Apr-16 17:30N 54°32' E 018°32'0 0.0
2017-Apr-16 17:00N 54°32' E 018°32'0 0.0
2017-Apr-16 16:30N 54°32' E 018°32'0 0.0
2017-Apr-16 16:00N 54°32' E 018°32'0 0.0
2017-Apr-16 15:30N 54°32' E 018°32'0 0.0
2017-Apr-16 15:00N 54°32' E 018°32'0 0.0
2017-Apr-16 14:00N 54°32' E 018°32'0 0.0
2017-Apr-16 13:30N 54°32' E 018°32'0 0.0
2017-Apr-16 13:00N 54°32' E 018°32'0 0.0
2017-Apr-16 12:30N 54°32' E 018°32'0 0.0
2017-Apr-16 12:00N 54°32' E 018°32'0 0.0
2017-Apr-16 11:30N 54°32' E 018°32'0 0.0
2017-Apr-16 11:00N 54°32' E 018°32'0 0.0
2017-Apr-16 10:30N 54°32' E 018°32'0 0.0
2017-Apr-16 10:00N 54°32' E 018°32'0 0.0
2017-Apr-16 09:30N 54°32' E 018°32'0 0.0
2017-Apr-16 09:00N 54°32' E 018°32'0 0.0
2017-Apr-16 08:30N 54°32' E 018°32'0 0.0
2017-Apr-16 08:00N 54°32' E 018°32'0 0.0
2017-Apr-16 07:30N 54°32' E 018°32'0 0.0
2017-Apr-16 07:00N 54°32' E 018°32'0 0.0
2017-Apr-16 06:30N 54°32' E 018°32'0 0.0
2017-Apr-16 06:00N 54°32' E 018°32'0 0.0
2017-Apr-16 05:30N 54°32' E 018°32'0 0.0
2017-Apr-16 05:00N 54°32' E 018°32'0 0.0
2017-Apr-16 04:30N 54°32' E 018°32'0 0.0
2017-Apr-16 04:00N 54°32' E 018°32'0 0.0
2017-Apr-16 03:30N 54°32' E 018°32'0 0.0
2017-Apr-16 03:00N 54°32' E 018°32'0 0.0
2017-Apr-16 02:30N 54°32' E 018°32'0 0.0
2017-Apr-16 02:00N 54°32' E 018°32'0 0.0
2017-Apr-16 01:30N 54°32' E 018°32'0 0.0
2017-Apr-16 01:00N 54°32' E 018°32'0 0.0
2017-Apr-16 00:30N 54°32' E 018°32'0 0.0
2017-Apr-16 00:00N 54°32' E 018°32'0 0.0
2017-Apr-15 23:30N 54°32' E 018°32'0 0.0
2017-Apr-15 23:00N 54°32' E 018°32'0 0.0
2017-Apr-15 22:30N 54°32' E 018°32'0 0.0
2017-Apr-15 22:00N 54°32' E 018°32'0 0.0
2017-Apr-15 21:30N 54°32' E 018°32'0 0.0
2017-Apr-15 21:00N 54°32' E 018°32'0 0.0
2017-Apr-15 20:30N 54°32' E 018°32'0 0.0
2017-Apr-15 20:00N 54°32' E 018°32'0 0.0
2017-Apr-15 19:30N 54°32' E 018°32'0 0.0
2017-Apr-15 19:00N 54°32' E 018°32'0 0.0
2017-Apr-15 18:30N 54°32' E 018°32'0 0.0
2017-Apr-15 18:00N 54°32' E 018°32'0 0.0
2017-Apr-15 17:30N 54°32' E 018°32'0 0.0
2017-Apr-15 17:00N 54°32' E 018°32'0 0.0
2017-Apr-15 16:30N 54°32' E 018°32'0 0.0
2017-Apr-15 16:00N 54°32' E 018°32'0 0.0
2017-Apr-15 15:30N 54°32' E 018°32'0 0.0
2017-Apr-15 15:00N 54°32' E 018°32'0 0.0
2017-Apr-15 14:00N 54°32' E 018°32'0 0.0
2017-Apr-15 13:30N 54°32' E 018°32'0 0.0
2017-Apr-15 13:00N 54°32' E 018°32'0 0.0
2017-Apr-15 12:30N 54°32' E 018°32'0 0.0
2017-Apr-15 12:00N 54°32' E 018°32'0 0.0
2017-Apr-15 11:30N 54°32' E 018°32'0 0.0
2017-Apr-15 11:00N 54°32' E 018°32'0 0.0
2017-Apr-15 10:30N 54°32' E 018°32'0 0.0
2017-Apr-15 10:00N 54°32' E 018°32'0 0.0
2017-Apr-15 09:30N 54°32' E 018°32'0 0.0
2017-Apr-15 08:57N 54°32' E 018°32'0 0.0
2017-Apr-15 08:30N 54°32' E 018°32'0 0.0
2017-Apr-15 08:00N 54°32' E 018°32'0 0.0
2017-Apr-15 07:30N 54°32' E 018°32'0 0.0
2017-Apr-15 07:00N 54°32' E 018°32'0 0.0
2017-Apr-15 06:30N 54°32' E 018°32'0 0.0
2017-Apr-15 06:00N 54°32' E 018°32'0 0.0
2017-Apr-15 05:30N 54°32' E 018°32'0 0.0
2017-Apr-15 05:00N 54°32' E 018°32'0 0.0
2017-Apr-15 04:30N 54°32' E 018°32'0 0.0
2017-Apr-15 04:00N 54°32' E 018°32'0 0.0
2017-Apr-15 03:30N 54°32' E 018°32'0 0.0
2017-Apr-15 03:00N 54°32' E 018°32'0 0.0
2017-Apr-15 02:30N 54°32' E 018°32'0 0.0
2017-Apr-15 02:00N 54°32' E 018°32'0 0.0
2017-Apr-15 01:30N 54°32' E 018°32'0 0.0
2017-Apr-15 01:00N 54°32' E 018°32'0 0.0
2017-Apr-15 00:30N 54°32' E 018°32'0 0.9
2017-Apr-14 23:59N 54°32' E 018°32'0 0.0
2017-Apr-14 23:29N 54°33' E 018°32'0 0.0
2017-Apr-14 22:59N 54°32' E 018°32'0 0.0
2017-Apr-14 22:29N 54°32' E 018°32'0 0.0
2017-Apr-14 21:59N 54°32' E 018°32'0 0.0
2017-Apr-14 21:29N 54°32' E 018°32'0 0.0
2017-Apr-14 20:59N 54°32' E 018°32'0 0.1
2017-Apr-14 20:29N 54°32' E 018°32'0 0.1
2017-Apr-14 19:59N 54°33' E 018°32'0 0.0
2017-Apr-14 19:29N 54°32' E 018°32'0 0.1
2017-Apr-14 18:59N 54°32' E 018°32'  
Track history (hours):
 
Tides and Currents Weather Stations Pressure Air Temp Water Temp Dewpoint Dewpoint Depression Visibility Wind Speed Wind Dir Waves Ship Positions

Berit

Last reported at 2017-Apr-24 18:54 UTC. Time now 2017-Apr-25 14:38 UTC.
Position N 54°02' E 007°58'.

Length 83 m; draft 4.4 m.

Type: Cargo ship. MMSI: 236386000.

Date/timePositionNaut miles runAvg speedWind from/ knotsBaromVisibWave heightAir tempDewpointWater temp
2017-Apr-24 18:54N 54°02' E 007°58'3 8.0
2017-Apr-24 18:30N 54°01' E 008°03'4 8.4
2017-Apr-24 18:00N 54°01' E 008°10'4 9.0
2017-Apr-24 17:31N 54°00' E 008°18'510.7
2017-Apr-24 17:00N 53°59' E 008°26'612.1
2017-Apr-24 16:30N 53°58' E 008°36'713.2
2017-Apr-24 16:00N 53°53' E 008°43'612.6
2017-Apr-24 15:31N 53°51' E 008°53'612.7
2017-Apr-24 15:00N 53°52' E 009°04'3 6.4
2017-Apr-24 14:30N 53°54' E 009°09'7 7.0
2017-Apr-24 13:30N 53°59' E 009°17'5 8.5
2017-Apr-24 12:57N 54°03' E 009°19'51 5.2
2017-Apr-24 03:04N 54°33' E 010°29'1 5.1
2017-Apr-24 02:54N 54°33' E 010°31'3 6.3
2017-Apr-24 02:30N 54°34' E 010°35'3 6.2
2017-Apr-24 02:00N 54°35' E 010°40'3 6.3
2017-Apr-24 01:31N 54°35' E 010°45'4 8.1
2017-Apr-24 01:01N 54°35' E 010°52'5 9.1
2017-Apr-24 00:31N 54°36' E 011°00'5 9.1
2017-Apr-24 00:01N 54°36' E 011°08'5 9.1
2017-Apr-23 23:30N 54°35' E 011°15'4 9.0
2017-Apr-23 23:01N 54°33' E 011°22'5 9.1
2017-Apr-23 22:31N 54°31' E 011°30'9 8.6
2017-Apr-23 21:30N 54°27' E 011°43'4 8.6
2017-Apr-23 21:00N 54°27' E 011°51'8 8.6
2017-Apr-23 20:02N 54°27' E 012°05'0 8.7
2017-Apr-23 20:00N 54°27' E 012°05'4 8.3
2017-Apr-23 19:31N 54°29' E 012°11'510.2
2017-Apr-23 19:01N 54°34' E 012°13'5 9.6
2017-Apr-23 18:30N 54°38' E 012°18'5 9.8
2017-Apr-23 18:01N 54°40' E 012°25'197 9.1
2017-Apr-22 20:23N 54°57' E 018°06'4 8.4
2017-Apr-22 19:55N 54°58' E 018°13'5 8.1
2017-Apr-22 19:21N 54°58' E 018°21'3 7.9
2017-Apr-22 19:00N 54°57' E 018°26'4 7.9
2017-Apr-22 18:31N 54°57' E 018°32'4 7.9
2017-Apr-22 18:01N 54°55' E 018°39'4 8.0
2017-Apr-22 17:31N 54°53' E 018°44'4 8.3
2017-Apr-22 17:01N 54°50' E 018°50'4 8.1
2017-Apr-22 16:31N 54°48' E 018°55'4 7.9
2017-Apr-22 16:01N 54°45' E 019°01'4 8.5
2017-Apr-22 15:31N 54°41' E 018°58'4 9.0
2017-Apr-22 15:01N 54°37' E 018°55'5 9.3
2017-Apr-22 14:31N 54°33' E 018°51'10 9.8
2017-Apr-22 13:31N 54°26' E 018°39'3 5.7
2017-Apr-22 13:01N 54°23' E 018°40'1 2.5
2017-Apr-22 12:28N 54°22' E 018°40'0 0.0
2017-Apr-22 11:58N 54°22' E 018°40'0 0.0
2017-Apr-22 11:28N 54°22' E 018°40'0 0.0
2017-Apr-22 10:58N 54°22' E 018°40'0 0.0
2017-Apr-22 10:28N 54°22' E 018°40'0 0.0
2017-Apr-22 09:58N 54°22' E 018°40'0 0.0
2017-Apr-22 09:28N 54°22' E 018°40'0 0.0
2017-Apr-22 08:58N 54°22' E 018°40'0 0.0
2017-Apr-22 08:28N 54°22' E 018°40'0 0.0
2017-Apr-22 07:58N 54°22' E 018°40'0 0.0
2017-Apr-22 07:28N 54°22' E 018°40'0 0.0
2017-Apr-22 06:58N 54°22' E 018°40'0 0.0
2017-Apr-22 06:28N 54°22' E 018°40'0 0.0
2017-Apr-22 05:58N 54°22' E 018°40'0 0.0
2017-Apr-22 05:28N 54°22' E 018°40'0 0.0
2017-Apr-22 04:58N 54°22' E 018°40'0 0.0
2017-Apr-22 04:28N 54°22' E 018°40'0 0.0
2017-Apr-22 03:58N 54°22' E 018°40'0 0.0
2017-Apr-22 03:28N 54°22' E 018°40'0 0.0
2017-Apr-22 02:58N 54°22' E 018°40'0 0.0
2017-Apr-22 02:28N 54°22' E 018°40'0 0.0
2017-Apr-22 01:58N 54°22' E 018°40'0 0.0
2017-Apr-22 01:25N 54°22' E 018°40'0 0.0
2017-Apr-22 00:58N 54°22' E 018°40'0 0.0
2017-Apr-22 00:28N 54°22' E 018°40'0 0.0
2017-Apr-21 23:58N 54°22' E 018°40'0 0.0
2017-Apr-21 23:28N 54°22' E 018°40'0 0.0
2017-Apr-21 22:58N 54°22' E 018°40'0 0.0
2017-Apr-21 22:22N 54°22' E 018°40'0 0.0
2017-Apr-21 21:58N 54°22' E 018°40'0 0.0
2017-Apr-21 21:28N 54°22' E 018°40'0 0.0
2017-Apr-21 20:58N 54°22' E 018°40'0 0.0
2017-Apr-21 20:28N 54°22' E 018°40'0 0.0
2017-Apr-21 19:58N 54°22' E 018°40'0 0.0
2017-Apr-21 19:29N 54°22' E 018°40'0 0.0
2017-Apr-21 18:58N 54°22' E 018°40'0 0.0
2017-Apr-21 18:28N 54°22' E 018°40'0 0.0
2017-Apr-21 17:58N 54°22' E 018°40'0 0.0
2017-Apr-21 17:28N 54°22' E 018°40'0 0.0
2017-Apr-21 16:58N 54°22' E 018°40'0 0.0
2017-Apr-21 16:28N 54°22' E 018°40'0 0.0
2017-Apr-21 15:58N 54°22' E 018°40'0 0.0
2017-Apr-21 15:25N 54°22' E 018°40'0 0.0
2017-Apr-21 14:58N 54°22' E 018°40'0 0.0
2017-Apr-21 14:28N 54°22' E 018°40'0 0.0
2017-Apr-21 13:28N 54°22' E 018°40'0 0.0
2017-Apr-21 12:58N 54°22' E 018°40'0 0.0
2017-Apr-21 12:28N 54°22' E 018°40'0 0.0
2017-Apr-21 11:58N 54°22' E 018°40'0 0.0
2017-Apr-21 11:28N 54°22' E 018°40'0 0.0
2017-Apr-21 10:58N 54°22' E 018°40'0 0.0
2017-Apr-21 10:28N 54°22' E 018°40'0 0.0
2017-Apr-21 09:58N 54°22' E 018°40'0 0.0
2017-Apr-21 09:28N 54°22' E 018°40'0 0.0
2017-Apr-21 08:58N 54°22' E 018°40'0 0.0
2017-Apr-21 08:28N 54°22' E 018°40'0 0.0
2017-Apr-21 07:55N 54°22' E 018°40'0 0.0
2017-Apr-21 07:28N 54°22' E 018°40'0 0.0
2017-Apr-21 06:58N 54°22' E 018°40'0 0.0
2017-Apr-21 06:28N 54°22' E 018°40'0 0.0
2017-Apr-21 05:58N 54°22' E 018°40'0 0.0
2017-Apr-21 05:28N 54°22' E 018°40'0 0.0
2017-Apr-21 04:58N 54°22' E 018°40'0 0.0
2017-Apr-21 04:28N 54°22' E 018°40'1 2.4
2017-Apr-21 04:00N 54°23' E 018°40'2 5.0
2017-Apr-21 03:30N 54°25' E 018°39'1 2.3
2017-Apr-21 03:00N 54°27' E 018°39'0 0.0
2017-Apr-21 02:30N 54°27' E 018°39'0 0.0
2017-Apr-21 02:00N 54°27' E 018°39'0 0.0
2017-Apr-21 01:30N 54°27' E 018°39'0 0.0
2017-Apr-21 01:00N 54°27' E 018°39'0 0.0
2017-Apr-21 00:30N 54°27' E 018°39'0 0.0
2017-Apr-21 00:00N 54°27' E 018°39'0 0.0
2017-Apr-20 23:30N 54°27' E 018°39'0 0.0
2017-Apr-20 23:00N 54°27' E 018°39'0 0.0
2017-Apr-20 22:30N 54°27' E 018°39'0 0.0
2017-Apr-20 22:00N 54°27' E 018°39'0 0.0
2017-Apr-20 21:30N 54°27' E 018°39'0 0.0
2017-Apr-20 21:00N 54°27' E 018°39'0 0.0
2017-Apr-20 20:30N 54°27' E 018°39'0 0.0
2017-Apr-20 20:00N 54°27' E 018°39'0 0.0
2017-Apr-20 19:30N 54°27' E 018°39'0 0.0
2017-Apr-20 19:00N 54°27' E 018°39'0 0.1
2017-Apr-20 18:30N 54°27' E 018°39'0 0.0
2017-Apr-20 18:00N 54°27' E 018°39'0 0.0
2017-Apr-20 17:30N 54°27' E 018°39'0 0.0
2017-Apr-20 17:00N 54°27' E 018°39'0 0.0
2017-Apr-20 16:30N 54°27' E 018°39'0 0.0
2017-Apr-20 16:00N 54°27' E 018°39'0 0.0
2017-Apr-20 15:30N 54°27' E 018°39'0 0.0
2017-Apr-20 15:00N 54°27' E 018°39'0 0.0
2017-Apr-20 14:30N 54°27' E 018°39'0 0.0
2017-Apr-20 13:30N 54°27' E 018°39'0 0.0
2017-Apr-20 13:00N 54°27' E 018°39'0 0.0
2017-Apr-20 12:30N 54°27' E 018°39'0 0.0
2017-Apr-20 12:00N 54°27' E 018°39'0 0.0
2017-Apr-20 11:30N 54°27' E 018°39'0 0.0
2017-Apr-20 11:00N 54°27' E 018°39'0 0.0
2017-Apr-20 10:30N 54°27' E 018°39'0 0.0
2017-Apr-20 10:00N 54°27' E 018°39'0 0.0
2017-Apr-20 09:30N 54°27' E 018°39'0 0.0
2017-Apr-20 09:00N 54°27' E 018°39'0 0.0
2017-Apr-20 08:30N 54°27' E 018°39'0 0.0
2017-Apr-20 08:00N 54°27' E 018°39'0 0.0
2017-Apr-20 07:30N 54°27' E 018°39'0 0.0
2017-Apr-20 07:00N 54°27' E 018°39'0 0.0
2017-Apr-20 06:30N 54°27' E 018°39'0 0.0
2017-Apr-20 06:00N 54°27' E 018°39'0 0.0
2017-Apr-20 05:30N 54°27' E 018°39'0 0.0
2017-Apr-20 05:00N 54°27' E 018°39'0 0.0
2017-Apr-20 04:30N 54°27' E 018°39'0 0.0
2017-Apr-20 04:00N 54°27' E 018°39'0 0.0
2017-Apr-20 03:30N 54°27' E 018°39'0 0.0
2017-Apr-20 03:00N 54°27' E 018°39'0 0.0
2017-Apr-20 02:30N 54°27' E 018°39'0 0.0
2017-Apr-20 02:00N 54°27' E 018°39'0 0.0
2017-Apr-20 01:30N 54°27' E 018°39'0 0.0
2017-Apr-20 01:00N 54°27' E 018°39'0 0.0
2017-Apr-20 00:30N 54°27' E 018°39'0 0.0
2017-Apr-20 00:00N 54°27' E 018°39'0 0.1
2017-Apr-19 23:30N 54°27' E 018°39'0 0.0
2017-Apr-19 23:00N 54°27' E 018°39'0 0.0
2017-Apr-19 22:30N 54°27' E 018°39'0 0.0
2017-Apr-19 22:00N 54°27' E 018°39'0 0.0
2017-Apr-19 21:30N 54°27' E 018°39'0 0.0
2017-Apr-19 21:00N 54°27' E 018°39'0 0.0
2017-Apr-19 20:30N 54°27' E 018°39'0 0.0
2017-Apr-19 20:00N 54°27' E 018°39'0 0.0
2017-Apr-19 19:30N 54°27' E 018°39'0 0.0
2017-Apr-19 19:00N 54°27' E 018°39'0 0.0
2017-Apr-19 18:30N 54°27' E 018°39'0 0.0
2017-Apr-19 18:00N 54°27' E 018°39'0 0.0
2017-Apr-19 17:30N 54°27' E 018°39'0 0.0
2017-Apr-19 17:00N 54°27' E 018°39'0 0.1
2017-Apr-19 16:30N 54°27' E 018°39'0 0.0
2017-Apr-19 16:00N 54°27' E 018°39'0 0.1
2017-Apr-19 15:30N 54°27' E 018°39'0 0.0
2017-Apr-19 15:00N 54°27' E 018°39'0 0.0
2017-Apr-19 14:30N 54°27' E 018°39'0 0.0
2017-Apr-19 13:30N 54°27' E 018°39'0 0.0
2017-Apr-19 13:00N 54°27' E 018°39'0 0.0
2017-Apr-19 12:30N 54°27' E 018°39'0 0.0
2017-Apr-19 12:00N 54°27' E 018°39'0 0.0
2017-Apr-19 11:30N 54°27' E 018°39'0 0.0
2017-Apr-19 11:00N 54°27' E 018°39'0 0.0
2017-Apr-19 10:30N 54°27' E 018°39'0 0.1
2017-Apr-19 10:00N 54°27' E 018°39'0 0.1
2017-Apr-19 09:30N 54°27' E 018°39'0 0.1
2017-Apr-19 09:00N 54°27' E 018°39'0 0.0
2017-Apr-19 08:30N 54°27' E 018°39'0 0.0
2017-Apr-19 08:00N 54°27' E 018°39'0 0.0
2017-Apr-19 07:30N 54°27' E 018°39'0 0.0
2017-Apr-19 07:00N 54°27' E 018°39'0 0.0
2017-Apr-19 06:30N 54°27' E 018°39'0 0.0
2017-Apr-19 06:00N 54°27' E 018°39'0 0.1
2017-Apr-19 05:30N 54°27' E 018°39'0 0.0
2017-Apr-19 05:00N 54°27' E 018°39'0 0.0
2017-Apr-19 04:30N 54°27' E 018°39'0 0.0
2017-Apr-19 04:00N 54°27' E 018°39'0 0.1
2017-Apr-19 03:30N 54°27' E 018°39'0 0.0
2017-Apr-19 03:00N 54°27' E 018°39'0 0.0
2017-Apr-19 02:30N 54°27' E 018°39'0 0.0
2017-Apr-19 02:00N 54°27' E 018°39'0 0.0
2017-Apr-19 01:30N 54°27' E 018°39'0 0.1
2017-Apr-19 01:00N 54°27' E 018°39'0 0.0
2017-Apr-19 00:30N 54°27' E 018°39'0 0.0
2017-Apr-19 00:00N 54°27' E 018°39'0 0.0
2017-Apr-18 23:30N 54°27' E 018°39'0 0.0
2017-Apr-18 23:00N 54°27' E 018°39'0 0.0
2017-Apr-18 22:30N 54°27' E 018°39'0 0.0
2017-Apr-18 22:00N 54°27' E 018°39'0 0.0
2017-Apr-18 21:30N 54°27' E 018°39'0 0.0
2017-Apr-18 21:00N 54°27' E 018°39'0 0.0
2017-Apr-18 20:30N 54°27' E 018°39'0 0.1
2017-Apr-18 20:00N 54°27' E 018°39'0 0.0
2017-Apr-18 19:30N 54°27' E 018°39'1 1.0
2017-Apr-18 19:01N 54°27' E 018°39'4 8.7
2017-Apr-18 18:31N 54°30' E 018°45'510.6
2017-Apr-18 18:01N 54°34' E 018°51'510.3
2017-Apr-18 17:31N 54°38' E 018°55'2 3.8
2017-Apr-18 17:01N 54°40' E 018°57'510.2
2017-Apr-18 16:31N 54°35' E 018°54'5 9.7
2017-Apr-18 16:01N 54°32' E 018°48'5 9.8
2017-Apr-18 15:31N 54°32' E 018°39'4 8.1
2017-Apr-18 15:01N 54°32' E 018°32'0 0.1
2017-Apr-18 14:30N 54°32' E 018°32'0 0.0
2017-Apr-18 13:30N 54°32' E 018°32'0 0.0
2017-Apr-18 13:00N 54°32' E 018°32'0 0.0
2017-Apr-18 12:30N 54°32' E 018°32'0 0.0
2017-Apr-18 12:00N 54°32' E 018°32'0 0.0
2017-Apr-18 11:30N 54°32' E 018°32'0 0.0
2017-Apr-18 11:00N 54°32' E 018°32'0 0.0
2017-Apr-18 10:30N 54°32' E 018°32'0 0.0
2017-Apr-18 10:00N 54°32' E 018°32'0 0.0
2017-Apr-18 09:30N 54°32' E 018°32'0 0.0
2017-Apr-18 09:00N 54°32' E 018°32'0 0.0
2017-Apr-18 08:30N 54°32' E 018°32'0 0.0
2017-Apr-18 08:00N 54°32' E 018°32'0 0.0
2017-Apr-18 07:30N 54°32' E 018°32'0 0.0
2017-Apr-18 07:00N 54°32' E 018°32'0 0.0
2017-Apr-18 06:30N 54°32' E 018°32'0 0.0
2017-Apr-18 06:00N 54°32' E 018°32'0 0.0
2017-Apr-18 05:30N 54°32' E 018°32'0 0.0
2017-Apr-18 05:00N 54°32' E 018°32'0 0.0
2017-Apr-18 04:30N 54°32' E 018°32'0 0.0
2017-Apr-18 04:00N 54°32' E 018°32'0 0.0
2017-Apr-18 03:30N 54°32' E 018°32'0 0.0
2017-Apr-18 03:00N 54°32' E 018°32'0 0.0
2017-Apr-18 02:31N 54°32' E 018°32'0 0.0
2017-Apr-18 02:00N 54°32' E 018°32'0 0.0
2017-Apr-18 01:30N 54°32' E 018°32'0 0.0
2017-Apr-18 01:00N 54°32' E 018°32'0 0.0
2017-Apr-18 00:30N 54°32' E 018°32'0 0.0
2017-Apr-18 00:00N 54°32' E 018°32'0 0.0
2017-Apr-17 23:30N 54°32' E 018°32'0 0.0
2017-Apr-17 23:00N 54°32' E 018°32'0 0.0
2017-Apr-17 22:30N 54°32' E 018°32'0 0.0
2017-Apr-17 22:00N 54°32' E 018°32'0 0.0
2017-Apr-17 21:30N 54°32' E 018°32'0 0.0
2017-Apr-17 21:00N 54°32' E 018°32'0 0.0
2017-Apr-17 20:30N 54°32' E 018°32'0 0.0
2017-Apr-17 19:57N 54°32' E 018°32'0 0.0
2017-Apr-17 19:30N 54°32' E 018°32'0 0.0
2017-Apr-17 19:00N 54°32' E 018°32'0 0.0
2017-Apr-17 18:30N 54°32' E 018°32'0 0.0
2017-Apr-17 18:00N 54°32' E 018°32'0 0.0
2017-Apr-17 17:30N 54°32' E 018°32'0 0.0
2017-Apr-17 17:00N 54°32' E 018°32'0 0.0
2017-Apr-17 16:30N 54°32' E 018°32'0 0.0
2017-Apr-17 16:00N 54°32' E 018°32'0 0.0
2017-Apr-17 15:30N 54°32' E 018°32'0 0.0
2017-Apr-17 15:00N 54°32' E 018°32'0 0.0
2017-Apr-17 14:30N 54°32' E 018°32'0 0.0
2017-Apr-17 13:30N 54°32' E 018°32'0 0.0
2017-Apr-17 13:00N 54°32' E 018°32'0 0.0
2017-Apr-17 12:30N 54°32' E 018°32'0 0.0
2017-Apr-17 12:00N 54°32' E 018°32'0 0.0
2017-Apr-17 11:30N 54°32' E 018°32'0 0.0
2017-Apr-17 11:00N 54°32' E 018°32'0 0.0
2017-Apr-17 10:30N 54°32' E 018°32'0 0.0
2017-Apr-17 10:00N 54°32' E 018°32'0 0.0
2017-Apr-17 09:30N 54°32' E 018°32'0 0.0
2017-Apr-17 09:00N 54°32' E 018°32'0 0.0
2017-Apr-17 08:30N 54°32' E 018°32'0 0.0
2017-Apr-17 08:00N 54°32' E 018°32'0 0.0
2017-Apr-17 07:30N 54°32' E 018°32'0 0.0
2017-Apr-17 07:00N 54°32' E 018°32'0 0.0
2017-Apr-17 06:30N 54°32' E 018°32'0 0.0
2017-Apr-17 06:00N 54°32' E 018°32'0 0.0
2017-Apr-17 05:30N 54°32' E 018°32'0 0.0
2017-Apr-17 05:00N 54°32' E 018°32'0 0.0
2017-Apr-17 04:30N 54°32' E 018°32'0 0.0
2017-Apr-17 03:57N 54°32' E 018°32'0 0.0
2017-Apr-17 03:30N 54°32' E 018°32'0 0.0
2017-Apr-17 03:00N 54°32' E 018°32'0 0.0
2017-Apr-17 02:30N 54°32' E 018°32'0 0.0
2017-Apr-17 02:00N 54°32' E 018°32'0 0.0
2017-Apr-17 01:30N 54°32' E 018°32'0 0.0
2017-Apr-17 01:00N 54°32' E 018°32'0 0.0
2017-Apr-17 00:30N 54°32' E 018°32'0 0.0
2017-Apr-17 00:00N 54°32' E 018°32'0 0.0
2017-Apr-16 23:30N 54°32' E 018°32'0 0.0
2017-Apr-16 23:00N 54°32' E 018°32'0 0.0
2017-Apr-16 22:30N 54°32' E 018°32'0 0.0
2017-Apr-16 22:00N 54°32' E 018°32'0 0.0
2017-Apr-16 21:30N 54°32' E 018°32'0 0.0
2017-Apr-16 21:00N 54°32' E 018°32'0 0.0
2017-Apr-16 20:30N 54°32' E 018°32'0 0.0
2017-Apr-16 20:00N 54°32' E 018°32'0 0.0
2017-Apr-16 19:30N 54°32' E 018°32'0 0.0
2017-Apr-16 19:00N 54°32' E 018°32'0 0.0
2017-Apr-16 18:30N 54°32' E 018°32'0 0.0
2017-Apr-16 18:00N 54°32' E 018°32'0 0.0
2017-Apr-16 17:30N 54°32' E 018°32'0 0.0
2017-Apr-16 17:00N 54°32' E 018°32'0 0.0
2017-Apr-16 16:30N 54°32' E 018°32'0 0.0
2017-Apr-16 16:00N 54°32' E 018°32'0 0.0
2017-Apr-16 15:30N 54°32' E 018°32'0 0.0
2017-Apr-16 15:00N 54°32' E 018°32'0 0.0
2017-Apr-16 14:00N 54°32' E 018°32'0 0.0
2017-Apr-16 13:30N 54°32' E 018°32'0 0.0
2017-Apr-16 13:00N 54°32' E 018°32'0 0.0
2017-Apr-16 12:30N 54°32' E 018°32'0 0.0
2017-Apr-16 12:00N 54°32' E 018°32'0 0.0
2017-Apr-16 11:30N 54°32' E 018°32'0 0.0
2017-Apr-16 11:00N 54°32' E 018°32'0 0.0
2017-Apr-16 10:30N 54°32' E 018°32'0 0.0
2017-Apr-16 10:00N 54°32' E 018°32'0 0.0
2017-Apr-16 09:30N 54°32' E 018°32'0 0.0
2017-Apr-16 09:00N 54°32' E 018°32'0 0.0
2017-Apr-16 08:30N 54°32' E 018°32'0 0.0
2017-Apr-16 08:00N 54°32' E 018°32'0 0.0
2017-Apr-16 07:30N 54°32' E 018°32'0 0.0
2017-Apr-16 07:00N 54°32' E 018°32'0 0.0
2017-Apr-16 06:30N 54°32' E 018°32'0 0.0
2017-Apr-16 06:00N 54°32' E 018°32'0 0.0
2017-Apr-16 05:30N 54°32' E 018°32'0 0.0
2017-Apr-16 05:00N 54°32' E 018°32'0 0.0
2017-Apr-16 04:30N 54°32' E 018°32'0 0.0
2017-Apr-16 04:00N 54°32' E 018°32'0 0.0
2017-Apr-16 03:30N 54°32' E 018°32'0 0.0
2017-Apr-16 03:00N 54°32' E 018°32'0 0.0
2017-Apr-16 02:30N 54°32' E 018°32'0 0.0
2017-Apr-16 02:00N 54°32' E 018°32'0 0.0
2017-Apr-16 01:30N 54°32' E 018°32'0 0.0
2017-Apr-16 01:00N 54°32' E 018°32'0 0.0
2017-Apr-16 00:30N 54°32' E 018°32'0 0.0
2017-Apr-16 00:00N 54°32' E 018°32'0 0.0
2017-Apr-15 23:30N 54°32' E 018°32'0 0.0
2017-Apr-15 23:00N 54°32' E 018°32'0 0.0
2017-Apr-15 22:30N 54°32' E 018°32'0 0.0
2017-Apr-15 22:00N 54°32' E 018°32'0 0.0
2017-Apr-15 21:30N 54°32' E 018°32'0 0.0
2017-Apr-15 21:00N 54°32' E 018°32'0 0.0
2017-Apr-15 20:30N 54°32' E 018°32'0 0.0
2017-Apr-15 20:00N 54°32' E 018°32'0 0.0
2017-Apr-15 19:30N 54°32' E 018°32'0 0.0
2017-Apr-15 19:00N 54°32' E 018°32'0 0.0
2017-Apr-15 18:30N 54°32' E 018°32'0 0.0
2017-Apr-15 18:00N 54°32' E 018°32'0 0.0
2017-Apr-15 17:30N 54°32' E 018°32'0 0.0
2017-Apr-15 17:00N 54°32' E 018°32'0 0.0
2017-Apr-15 16:30N 54°32' E 018°32'0 0.0
2017-Apr-15 16:00N 54°32' E 018°32'0 0.0
2017-Apr-15 15:30N 54°32' E 018°32'0 0.0
2017-Apr-15 15:00N 54°32' E 018°32'0 0.0
2017-Apr-15 14:00N 54°32' E 018°32'0 0.0
2017-Apr-15 13:30N 54°32' E 018°32'0 0.0
2017-Apr-15 13:00N 54°32' E 018°32'0 0.0
2017-Apr-15 12:30N 54°32' E 018°32'0 0.0
2017-Apr-15 12:00N 54°32' E 018°32'0 0.0
2017-Apr-15 11:30N 54°32' E 018°32'0 0.0
2017-Apr-15 11:00N 54°32' E 018°32'0 0.0
2017-Apr-15 10:30N 54°32' E 018°32'0 0.0
2017-Apr-15 10:00N 54°32' E 018°32'0 0.0
2017-Apr-15 09:30N 54°32' E 018°32'0 0.0
2017-Apr-15 08:57N 54°32' E 018°32'0 0.0
2017-Apr-15 08:30N 54°32' E 018°32'0 0.0
2017-Apr-15 08:00N 54°32' E 018°32'0 0.0
2017-Apr-15 07:30N 54°32' E 018°32'0 0.0
2017-Apr-15 07:00N 54°32' E 018°32'0 0.0
2017-Apr-15 06:30N 54°32' E 018°32'0 0.0
2017-Apr-15 06:00N 54°32' E 018°32'0 0.0
2017-Apr-15 05:30N 54°32' E 018°32'0 0.0
2017-Apr-15 05:00N 54°32' E 018°32'0 0.0
2017-Apr-15 04:30N 54°32' E 018°32'0 0.0
2017-Apr-15 04:00N 54°32' E 018°32'0 0.0
2017-Apr-15 03:30N 54°32' E 018°32'0 0.0
2017-Apr-15 03:00N 54°32' E 018°32'0 0.0
2017-Apr-15 02:30N 54°32' E 018°32'0 0.0
2017-Apr-15 02:00N 54°32' E 018°32'0 0.0
2017-Apr-15 01:30N 54°32' E 018°32'0 0.0
2017-Apr-15 01:00N 54°32' E 018°32'0 0.0
2017-Apr-15 00:30N 54°32' E 018°32'0 0.9
2017-Apr-14 23:59N 54°32' E 018°32'0 0.0
2017-Apr-14 23:29N 54°33' E 018°32'0 0.0
2017-Apr-14 22:59N 54°32' E 018°32'0 0.0
2017-Apr-14 22:29N 54°32' E 018°32'0 0.0
2017-Apr-14 21:59N 54°32' E 018°32'0 0.0
2017-Apr-14 21:29N 54°32' E 018°32'0 0.0
2017-Apr-14 20:59N 54°32' E 018°32'0 0.1
2017-Apr-14 20:29N 54°32' E 018°32'0 0.1
2017-Apr-14 19:59N 54°33' E 018°32'0 0.0
2017-Apr-14 19:29N 54°32' E 018°32'0 0.1
2017-Apr-14 18:59N 54°32' E 018°32'  

Dump ship's entire track history